createdAt,value
2018-12-08T00:01:56.116Z,2.03
2018-12-08T00:04:23.048Z,2.53
2018-12-08T00:06:49.925Z,2.50
2018-12-08T00:09:16.603Z,2.73
2018-12-08T00:11:43.061Z,2.70
2018-12-08T00:14:09.529Z,2.43
2018-12-08T00:16:36.185Z,2.43
2018-12-08T00:19:02.875Z,2.70
2018-12-08T00:21:29.355Z,2.63
2018-12-08T00:23:55.817Z,2.67
2018-12-08T00:26:22.427Z,3.30
2018-12-08T00:28:49.037Z,2.53
2018-12-08T00:31:28.014Z,2.93
2018-12-08T00:33:54.536Z,2.63
2018-12-08T00:36:21.048Z,2.73
2018-12-08T00:38:47.518Z,2.63
2018-12-08T00:41:13.996Z,2.60
2018-12-08T00:43:40.462Z,2.60
2018-12-08T00:46:07.045Z,3.50
2018-12-08T00:48:33.512Z,3.27
2018-12-08T00:51:00.002Z,3.23
2018-12-08T00:53:26.743Z,3.00
2018-12-08T00:55:53.266Z,3.60
2018-12-08T00:58:19.702Z,3.40
2018-12-08T01:00:46.193Z,3.57
2018-12-08T01:03:13.266Z,5.03
2018-12-08T01:05:40.397Z,3.17
2018-12-08T01:08:07.117Z,3.60
2018-12-08T01:10:34.006Z,4.03
2018-12-08T01:13:00.455Z,4.50
2018-12-08T01:15:26.937Z,3.17
2018-12-08T01:17:53.393Z,3.70
2018-12-08T01:20:19.982Z,4.50
2018-12-08T01:22:46.435Z,3.70
2018-12-08T01:25:13.151Z,3.93
2018-12-08T01:27:41.031Z,4.80
2018-12-08T01:30:08.013Z,4.40
2018-12-08T01:32:34.638Z,4.93
2018-12-08T01:35:01.140Z,4.00
2018-12-08T01:37:27.685Z,3.80
2018-12-08T01:39:54.161Z,4.30
2018-12-08T01:42:20.720Z,3.60
2018-12-08T01:44:47.214Z,3.30
2018-12-08T01:47:13.694Z,3.90
2018-12-08T01:49:40.180Z,3.97
2018-12-08T01:52:06.658Z,3.77
2018-12-08T01:54:33.198Z,3.70
2018-12-08T01:56:59.689Z,4.17
2018-12-08T01:59:26.136Z,5.10
2018-12-08T02:01:52.607Z,3.70
2018-12-08T02:04:19.616Z,3.70
2018-12-08T02:06:45.995Z,3.30
2018-12-08T02:09:14.444Z,3.50
2018-12-08T02:11:40.958Z,4.13
2018-12-08T02:14:07.397Z,3.70
2018-12-08T02:16:33.880Z,3.40
2018-12-08T02:19:00.317Z,4.10
2018-12-08T02:21:26.804Z,3.73
2018-12-08T02:23:53.269Z,3.63
2018-12-08T02:26:19.862Z,3.83
2018-12-08T02:28:46.480Z,4.30
2018-12-08T02:31:13.219Z,4.20
2018-12-08T02:33:39.760Z,3.83
2018-12-08T02:36:06.348Z,3.43
2018-12-08T02:38:32.836Z,4.10
2018-12-08T02:40:59.311Z,3.93
2018-12-08T02:43:25.746Z,3.30
2018-12-08T02:45:52.386Z,3.67
2018-12-08T02:48:18.841Z,4.23
2018-12-08T02:50:45.327Z,4.53
2018-12-08T02:53:11.784Z,3.73
2018-12-08T02:55:38.265Z,3.23
2018-12-08T02:58:04.727Z,3.73
2018-12-08T03:00:31.285Z,4.37
2018-12-08T03:02:57.852Z,3.80
2018-12-08T03:05:24.460Z,4.00
2018-12-08T03:07:50.805Z,5.67
2018-12-08T03:10:17.255Z,3.20
2018-12-08T03:12:43.723Z,3.40
2018-12-08T03:15:10.400Z,3.80
2018-12-08T03:17:36.872Z,4.00
2018-12-08T03:20:03.749Z,3.83
2018-12-08T03:22:31.247Z,4.40
2018-12-08T03:24:57.828Z,3.97
2018-12-08T03:27:24.404Z,4.93
2018-12-08T03:29:50.940Z,3.60
2018-12-08T03:32:17.432Z,4.20
2018-12-08T03:34:43.983Z,3.87
2018-12-08T03:37:10.567Z,3.63
2018-12-08T03:39:37.025Z,3.47
2018-12-08T03:42:05.337Z,3.70
2018-12-08T03:44:32.307Z,3.80
2018-12-08T03:46:58.930Z,3.97
2018-12-08T03:49:25.611Z,4.10
2018-12-08T03:51:52.378Z,3.27
2018-12-08T03:54:19.038Z,3.80
2018-12-08T03:56:45.716Z,3.97
2018-12-08T03:59:12.157Z,3.20
2018-12-08T04:01:38.655Z,3.10
2018-12-08T04:04:06.098Z,3.80
2018-12-08T04:06:32.788Z,3.53
2018-12-08T04:08:59.354Z,3.27
2018-12-08T04:11:26.035Z,3.53
2018-12-08T04:13:52.724Z,3.00
2018-12-08T04:16:20.166Z,4.20
2018-12-08T04:18:46.741Z,3.60
2018-12-08T04:21:13.412Z,3.10
2018-12-08T04:23:40.357Z,3.93
2018-12-08T04:26:08.041Z,4.30
2018-12-08T04:28:34.608Z,2.90
2018-12-08T04:31:01.277Z,2.80
2018-12-08T04:33:27.732Z,3.83
2018-12-08T04:35:54.722Z,3.20
2018-12-08T04:38:21.492Z,4.80
2018-12-08T04:40:47.957Z,3.40
2018-12-08T04:43:14.504Z,3.60
2018-12-08T04:45:41.398Z,2.40
2018-12-08T04:48:07.976Z,3.50
2018-12-08T04:50:34.639Z,3.90
2018-12-08T04:53:01.826Z,3.17
2018-12-08T04:55:28.365Z,2.73
2018-12-08T04:57:55.945Z,2.80
2018-12-08T05:00:22.608Z,3.60
2018-12-08T05:02:49.133Z,3.50
2018-12-08T05:05:15.593Z,4.00
2018-12-08T05:07:42.295Z,3.63
2018-12-08T05:10:08.744Z,3.23
2018-12-08T05:12:35.249Z,3.70
2018-12-08T05:15:01.918Z,4.10
2018-12-08T05:17:30.402Z,3.20
2018-12-08T05:19:57.558Z,4.20
2018-12-08T05:22:24.155Z,3.67
2018-12-08T05:24:50.700Z,4.13
2018-12-08T05:27:18.889Z,3.80
2018-12-08T05:29:47.053Z,3.73
2018-12-08T05:32:13.632Z,3.70
2018-12-08T05:34:40.265Z,3.77
2018-12-08T05:37:08.458Z,3.43
2018-12-08T05:39:35.501Z,3.80
2018-12-08T05:42:03.800Z,3.20
2018-12-08T05:44:30.260Z,3.73
2018-12-08T05:46:56.754Z,4.73
2018-12-08T05:49:23.997Z,4.63
2018-12-08T05:51:52.294Z,3.43
2018-12-08T05:54:19.345Z,4.20
2018-12-08T05:56:46.954Z,3.30
2018-12-08T05:59:13.549Z,3.57
2018-12-08T06:01:41.360Z,4.47
2018-12-08T06:04:08.968Z,4.17
2018-12-08T06:06:35.517Z,3.80
2018-12-08T06:09:04.691Z,3.67
2018-12-08T06:11:31.236Z,4.60
2018-12-08T06:13:57.822Z,4.60
2018-12-08T06:16:24.464Z,4.90
2018-12-08T06:18:51.941Z,4.60
2018-12-08T06:21:22.623Z,5.10
2018-12-08T06:23:49.223Z,5.40
2018-12-08T06:26:15.872Z,5.17
2018-12-08T06:28:43.365Z,5.33
2018-12-08T06:31:09.923Z,5.87
2018-12-08T06:33:36.473Z,5.50
2018-12-08T06:36:03.286Z,5.57
2018-12-08T06:38:29.758Z,6.13
2018-12-08T06:40:56.442Z,7.00
2018-12-08T06:43:23.116Z,6.50
2018-12-08T06:45:49.765Z,6.90
2018-12-08T06:48:16.465Z,6.67
2018-12-08T06:50:44.089Z,7.10
2018-12-08T06:53:10.659Z,7.70
2018-12-08T06:55:37.237Z,7.70
2018-12-08T06:58:03.937Z,8.37
2018-12-08T07:00:30.494Z,7.47
2018-12-08T07:02:57.070Z,9.30
2018-12-08T07:05:24.539Z,8.80
2018-12-08T07:07:51.122Z,8.10
2018-12-08T07:10:17.786Z,8.00
2018-12-08T07:12:44.364Z,8.40
2018-12-08T07:15:10.933Z,8.73
2018-12-08T07:17:37.505Z,8.30
2018-12-08T07:20:04.673Z,8.33
2018-12-08T07:22:31.743Z,8.50
2018-12-08T07:24:58.327Z,8.03
2018-12-08T07:27:24.778Z,8.20
2018-12-08T07:29:51.265Z,8.33
2018-12-08T07:32:17.712Z,7.93
2018-12-08T07:34:44.319Z,7.63
2018-12-08T07:37:10.876Z,8.10
2018-12-08T07:39:37.348Z,7.80
2018-12-08T07:42:04.315Z,7.50
2018-12-08T07:44:30.813Z,7.50
2018-12-08T07:46:57.383Z,7.93
2018-12-08T07:49:23.860Z,7.27
2018-12-08T07:51:50.321Z,6.37
2018-12-08T07:54:16.915Z,7.20
2018-12-08T07:56:43.366Z,6.50
2018-12-08T07:59:10.065Z,6.93
2018-12-08T08:01:36.518Z,6.43
2018-12-08T08:04:03.112Z,5.93
2018-12-08T08:06:29.565Z,6.00
2018-12-08T08:08:56.044Z,6.57
2018-12-08T08:11:22.706Z,6.80
2018-12-08T08:13:49.305Z,6.37
2018-12-08T08:16:15.873Z,6.50
2018-12-08T08:18:42.449Z,5.60
2018-12-08T08:21:08.902Z,6.27
2018-12-08T08:23:35.406Z,6.50
2018-12-08T08:26:01.853Z,6.10
2018-12-08T08:28:28.331Z,5.80
2018-12-08T08:30:54.782Z,5.60
2018-12-08T08:33:21.383Z,5.50
2018-12-08T08:35:47.852Z,5.37
2018-12-08T08:38:14.445Z,5.70
2018-12-08T08:40:41.076Z,6.33
2018-12-08T08:43:07.521Z,6.10
2018-12-08T08:45:34.035Z,6.20
2018-12-08T08:48:00.644Z,6.07
2018-12-08T08:50:27.022Z,6.17
2018-12-08T08:52:53.569Z,6.40
2018-12-08T08:55:20.069Z,5.83
2018-12-08T08:57:46.525Z,5.70
2018-12-08T09:00:13.137Z,6.93
2018-12-08T09:02:39.686Z,6.53
2018-12-08T09:05:06.581Z,8.03
2018-12-08T09:07:33.232Z,8.10
2018-12-08T09:10:00.735Z,7.80
2018-12-08T09:12:27.300Z,7.80
2018-12-08T09:14:53.977Z,7.80
2018-12-08T09:17:21.134Z,7.50
2018-12-08T09:19:48.220Z,7.10
2018-12-08T09:22:15.304Z,7.40
2018-12-08T09:24:43.665Z,7.57
2018-12-08T09:27:11.832Z,7.30
2018-12-08T09:29:38.530Z,7.40
2018-12-08T09:32:06.131Z,7.80
2018-12-08T09:34:34.334Z,7.70
2018-12-08T09:37:02.028Z,7.17
2018-12-08T09:39:29.101Z,7.37
2018-12-08T09:41:55.661Z,6.90
2018-12-08T09:44:22.246Z,7.73
2018-12-08T09:46:48.704Z,7.77
2018-12-08T09:49:15.217Z,7.13
2018-12-08T09:51:41.667Z,7.70
2018-12-08T09:54:08.261Z,8.43
2018-12-08T09:56:34.721Z,6.90
2018-12-08T09:59:01.320Z,6.90
2018-12-08T10:01:27.938Z,7.20
2018-12-08T10:03:54.397Z,8.40
2018-12-08T10:06:20.889Z,7.47
2018-12-08T10:08:47.348Z,7.83
2018-12-08T10:11:13.945Z,7.70
2018-12-08T10:13:42.110Z,7.70
2018-12-08T10:16:08.784Z,7.17
2018-12-08T10:18:35.350Z,7.50
2018-12-08T10:21:02.262Z,7.33
2018-12-08T10:23:28.716Z,6.53
2018-12-08T10:25:55.542Z,6.60
2018-12-08T10:28:22.020Z,6.30
2018-12-08T10:30:48.507Z,7.10
2018-12-08T10:33:15.089Z,6.90
2018-12-08T10:35:42.793Z,6.10
2018-12-08T10:38:10.164Z,7.23
2018-12-08T10:40:36.874Z,8.03
2018-12-08T10:43:03.552Z,6.80
2018-12-08T10:45:30.112Z,6.50
2018-12-08T10:47:56.480Z,6.50
2018-12-08T10:50:22.958Z,6.40
2018-12-08T10:52:49.746Z,6.13
2018-12-08T10:55:18.454Z,6.33
2018-12-08T10:57:45.008Z,6.00
2018-12-08T11:00:13.624Z,7.00
2018-12-08T11:02:40.393Z,6.73
2018-12-08T11:05:07.082Z,6.90
2018-12-08T11:07:33.780Z,6.87
2018-12-08T11:10:00.402Z,6.53
2018-12-08T11:12:27.076Z,6.10
2018-12-08T11:15:00.478Z,6.97
2018-12-08T11:17:22.257Z,6.40
2018-12-08T11:19:48.766Z,6.30
2018-12-08T11:22:16.593Z,6.40
2018-12-08T11:24:44.081Z,6.23
2018-12-08T11:27:10.660Z,6.40
2018-12-08T11:29:37.148Z,6.30
2018-12-08T11:32:03.855Z,5.50
2018-12-08T11:34:30.422Z,6.00
2018-12-08T11:36:57.180Z,6.23
2018-12-08T11:39:23.693Z,6.37
2018-12-08T11:41:50.511Z,5.43
2018-12-08T11:44:17.221Z,6.37
2018-12-08T11:46:43.834Z,6.57
2018-12-08T11:49:10.334Z,5.47
2018-12-08T11:51:36.858Z,5.67
2018-12-08T11:54:03.574Z,5.83
2018-12-08T11:56:30.143Z,5.57
2018-12-08T11:58:56.771Z,5.63
2018-12-08T12:01:23.230Z,5.63
2018-12-08T12:03:49.941Z,5.70
2018-12-08T12:06:16.428Z,5.10
2018-12-08T12:08:43.265Z,4.80
2018-12-08T12:11:09.881Z,5.27
2018-12-08T12:13:36.369Z,5.07
2018-12-08T12:16:03.039Z,5.37
2018-12-08T12:18:29.629Z,4.93
2018-12-08T12:20:56.116Z,5.20
2018-12-08T12:23:22.660Z,5.00
2018-12-08T12:25:49.376Z,6.37
2018-12-08T12:28:15.889Z,5.07
2018-12-08T12:30:42.662Z,5.40
2018-12-08T12:33:09.910Z,4.70
2018-12-08T12:35:36.570Z,5.07
2018-12-08T12:38:03.244Z,4.57
2018-12-08T12:40:30.942Z,4.60
2018-12-08T12:42:57.544Z,4.50
2018-12-08T12:45:24.574Z,4.40
2018-12-08T12:47:51.142Z,5.00
2018-12-08T12:50:17.672Z,4.53
2018-12-08T12:52:46.076Z,3.70
2018-12-08T12:55:13.456Z,3.87
2018-12-08T12:57:40.172Z,3.80
2018-12-08T13:00:09.195Z,3.30
2018-12-08T13:02:35.853Z,3.80
2018-12-08T13:05:04.856Z,4.50
2018-12-08T13:07:33.137Z,4.27
2018-12-08T13:09:59.580Z,3.80
2018-12-08T13:12:26.491Z,4.20
2018-12-08T13:14:53.217Z,3.53
2018-12-08T13:17:19.745Z,4.00
2018-12-08T13:19:46.347Z,4.93
2018-12-08T13:22:13.233Z,3.80
2018-12-08T13:24:39.948Z,3.00
2018-12-08T13:27:06.406Z,3.17
2018-12-08T13:29:33.214Z,3.87
2018-12-08T13:31:59.784Z,3.37
2018-12-08T13:34:27.601Z,3.70
2018-12-08T13:36:54.268Z,3.80
2018-12-08T13:39:21.006Z,3.83
2018-12-08T13:41:47.776Z,3.80
2018-12-08T13:44:34.183Z,3.70
2018-12-08T13:47:02.270Z,3.90
2018-12-08T13:49:28.732Z,4.10
2018-12-08T13:51:55.292Z,4.37
2018-12-08T13:54:45.201Z,4.10
2018-12-08T13:57:12.103Z,3.47
2018-12-08T13:59:38.654Z,4.30
2018-12-08T14:02:06.953Z,4.03
2018-12-08T14:04:33.860Z,4.20
2018-12-08T14:07:00.432Z,4.17
2018-12-08T14:09:28.937Z,3.90
2018-12-08T14:11:55.659Z,4.30
2018-12-08T14:14:22.197Z,3.80
2018-12-08T14:16:50.365Z,3.63
2018-12-08T14:19:16.878Z,3.90
2018-12-08T14:21:43.333Z,3.13
2018-12-08T14:24:09.918Z,3.90
2018-12-08T14:26:36.377Z,3.30
2018-12-08T14:29:02.997Z,3.90
2018-12-08T14:31:29.775Z,3.37
2018-12-08T14:33:56.661Z,3.80
2018-12-08T14:36:23.404Z,4.10
2018-12-08T14:38:57.311Z,3.83
2018-12-08T14:41:18.543Z,4.60
2018-12-08T14:43:44.997Z,4.27
2018-12-08T14:46:11.554Z,4.63
2018-12-08T14:48:39.153Z,4.97
2018-12-08T14:51:05.758Z,4.80
2018-12-08T14:53:32.655Z,6.40
2018-12-08T14:55:59.216Z,5.27
2018-12-08T14:58:25.825Z,5.47
2018-12-08T15:00:52.482Z,5.77
2018-12-08T15:03:19.817Z,6.07
2018-12-08T15:05:46.416Z,5.60
2018-12-08T15:08:13.175Z,5.10
2018-12-08T15:10:39.730Z,4.90
2018-12-08T15:13:06.215Z,5.10
2018-12-08T15:15:32.772Z,5.90
2018-12-08T15:17:59.285Z,4.60
2018-12-08T15:20:26.035Z,4.67
2018-12-08T15:22:52.605Z,4.57
2018-12-08T15:25:19.204Z,3.83
2018-12-08T15:27:45.799Z,4.40
2018-12-08T15:30:12.369Z,4.70
2018-12-08T15:32:39.004Z,4.20
2018-12-08T15:35:07.849Z,4.10
2018-12-08T15:37:34.491Z,3.93
2018-12-08T15:40:01.322Z,3.80
2018-12-08T15:42:29.504Z,3.17
2018-12-08T15:44:56.182Z,3.43
2018-12-08T15:47:22.797Z,2.93
2018-12-08T15:49:49.461Z,2.90
2018-12-08T15:52:16.168Z,3.07
2018-12-08T15:54:42.639Z,3.20
2018-12-08T15:57:09.973Z,3.23
2018-12-08T15:59:36.734Z,2.33
2018-12-08T16:02:03.430Z,2.47
2018-12-08T16:04:29.889Z,2.70
2018-12-08T16:06:56.388Z,3.07
2018-12-08T16:09:22.908Z,3.03
2018-12-08T16:11:49.475Z,3.10
2018-12-08T16:14:17.025Z,2.27
2018-12-08T16:16:43.610Z,2.57
2018-12-08T16:19:10.182Z,3.07
2018-12-08T16:21:36.780Z,2.90
2018-12-08T16:24:04.681Z,3.20
2018-12-08T16:26:31.438Z,3.20
2018-12-08T16:28:59.583Z,3.73
2018-12-08T16:31:27.127Z,2.63
2018-12-08T16:33:53.784Z,2.70
2018-12-08T16:36:21.950Z,2.60
2018-12-08T16:38:48.543Z,2.90
2018-12-08T16:41:15.904Z,2.77
2018-12-08T16:43:42.517Z,2.63
2018-12-08T16:46:09.974Z,2.17
2018-12-08T16:48:36.662Z,2.40
2018-12-08T16:51:03.479Z,2.30
2018-12-08T16:53:30.142Z,2.37
2018-12-08T16:55:56.652Z,2.57
2018-12-08T16:58:23.314Z,2.27
2018-12-08T17:00:50.073Z,2.40
2018-12-08T17:03:16.443Z,2.40
2018-12-08T17:05:43.044Z,2.47
2018-12-08T17:08:09.668Z,2.40
2018-12-08T17:10:36.180Z,2.30
2018-12-08T17:13:03.038Z,2.20
2018-12-08T17:15:29.783Z,1.87
2018-12-08T17:17:56.238Z,2.60
2018-12-08T17:20:22.825Z,1.57
2018-12-08T17:22:49.396Z,1.77
2018-12-08T17:25:16.017Z,1.80
2018-12-08T17:27:43.297Z,1.47
2018-12-08T17:30:10.070Z,2.30
2018-12-08T17:32:36.580Z,1.80
2018-12-08T17:35:03.341Z,2.03
2018-12-08T17:37:29.938Z,1.70
2018-12-08T17:39:56.430Z,2.50
2018-12-08T17:42:22.893Z,2.87
2018-12-08T17:44:49.669Z,2.30
2018-12-08T17:47:16.126Z,2.43
2018-12-08T17:49:43.631Z,2.10
2018-12-08T17:52:10.081Z,2.00
2018-12-08T17:54:36.490Z,2.90
2018-12-08T17:57:03.267Z,2.70
2018-12-08T17:59:30.024Z,2.93
2018-12-08T18:01:56.502Z,2.80
2018-12-08T18:04:23.101Z,3.17
2018-12-08T18:06:49.763Z,3.13
2018-12-08T18:09:16.370Z,3.00
2018-12-08T18:11:43.013Z,3.60
2018-12-08T18:14:09.513Z,2.90
2018-12-08T18:16:36.128Z,2.90
2018-12-08T18:19:02.703Z,2.70
2018-12-08T18:21:29.359Z,3.30
2018-12-08T18:23:56.146Z,3.03
2018-12-08T18:26:23.497Z,2.87
2018-12-08T18:28:50.914Z,3.33
2018-12-08T18:31:18.165Z,3.20
2018-12-08T18:33:44.752Z,2.43
2018-12-08T18:36:11.494Z,3.20
2018-12-08T18:38:38.074Z,3.20
2018-12-08T18:41:04.585Z,3.07
2018-12-08T18:43:31.073Z,3.30
2018-12-08T18:45:57.680Z,3.40
2018-12-08T18:48:24.127Z,2.70
2018-12-08T18:50:50.714Z,4.10
2018-12-08T18:53:17.229Z,3.20
2018-12-08T18:55:44.728Z,2.60
2018-12-08T18:58:11.286Z,2.60
2018-12-08T19:00:38.598Z,3.03
2018-12-08T19:03:06.211Z,3.00
2018-12-08T19:05:32.910Z,3.17
2018-12-08T19:07:59.505Z,2.70
2018-12-08T19:10:26.243Z,2.50
2018-12-08T19:12:52.841Z,3.93
2018-12-08T19:15:19.532Z,2.97
2018-12-08T19:17:46.256Z,3.10
2018-12-08T19:20:12.969Z,2.90
2018-12-08T19:22:41.224Z,3.13
2018-12-08T19:25:07.978Z,2.40
2018-12-08T19:27:34.637Z,2.90
2018-12-08T19:30:01.441Z,3.70
2018-12-08T19:32:29.014Z,2.90
2018-12-08T19:34:55.745Z,3.03
2018-12-08T19:37:22.370Z,3.13
2018-12-08T19:39:48.941Z,2.87
2018-12-08T19:42:17.290Z,3.03
2018-12-08T19:44:43.879Z,2.40
2018-12-08T19:47:11.150Z,3.47
2018-12-08T19:49:37.883Z,3.33
2018-12-08T19:52:04.598Z,2.63
2018-12-08T19:54:31.261Z,3.17
2018-12-08T19:56:57.886Z,3.80
2018-12-08T19:59:24.324Z,3.33
2018-12-08T20:01:50.932Z,3.23
2018-12-08T20:04:17.413Z,4.93
2018-12-08T20:06:43.972Z,3.53
2018-12-08T20:09:10.490Z,3.73
2018-12-08T20:11:37.043Z,3.47
2018-12-08T20:14:03.612Z,3.40
2018-12-08T20:16:30.333Z,4.00
2018-12-08T20:18:56.783Z,3.53
2018-12-08T20:21:23.322Z,3.57
2018-12-08T20:23:50.018Z,2.60
2018-12-08T20:26:16.535Z,3.47
2018-12-08T20:28:42.931Z,3.03
2018-12-08T20:31:09.645Z,2.97
2018-12-08T20:33:36.248Z,2.90
2018-12-08T20:36:02.789Z,3.10
2018-12-08T20:38:29.273Z,3.43
2018-12-08T20:40:55.882Z,3.00
2018-12-08T20:43:22.329Z,3.40
2018-12-08T20:45:48.825Z,3.40
2018-12-08T20:48:15.297Z,4.50
2018-12-08T20:50:41.766Z,2.87
2018-12-08T20:53:08.338Z,3.43
2018-12-08T20:55:34.901Z,3.50
2018-12-08T20:58:01.399Z,2.90
2018-12-08T21:00:27.900Z,3.87
2018-12-08T21:02:54.553Z,3.23
2018-12-08T21:05:21.060Z,3.23
2018-12-08T21:07:47.711Z,3.40
2018-12-08T21:10:14.419Z,3.50
2018-12-08T21:12:41.003Z,3.50
2018-12-08T21:15:07.816Z,3.27
2018-12-08T21:17:34.263Z,3.17
2018-12-08T21:20:01.715Z,3.47
2018-12-08T21:22:28.297Z,3.33
2018-12-08T21:24:54.929Z,3.57
2018-12-08T21:27:21.400Z,4.10
2018-12-08T21:29:47.899Z,3.63
2018-12-08T21:32:14.410Z,3.60
2018-12-08T21:34:40.955Z,5.13
2018-12-08T21:37:07.481Z,3.80
2018-12-08T21:39:34.043Z,3.80
2018-12-08T21:42:00.528Z,4.03
2018-12-08T21:44:27.041Z,3.30
2018-12-08T21:46:53.597Z,3.70
2018-12-08T21:49:20.189Z,3.90
2018-12-08T21:51:46.605Z,3.93
2018-12-08T21:54:13.113Z,3.00
2018-12-08T21:56:39.717Z,4.47
2018-12-08T21:59:06.183Z,3.83
2018-12-08T22:01:32.775Z,4.67
2018-12-08T22:04:00.931Z,4.77
2018-12-08T22:06:27.646Z,3.40
2018-12-08T22:08:54.297Z,3.40
2018-12-08T22:11:20.864Z,4.10
2018-12-08T22:13:47.463Z,4.13
2018-12-08T22:16:14.564Z,4.80
2018-12-08T22:18:41.529Z,4.50
2018-12-08T22:21:08.225Z,5.03
2018-12-08T22:23:34.721Z,4.50
2018-12-08T22:26:01.349Z,4.67
2018-12-08T22:28:28.005Z,4.90
2018-12-08T22:30:54.460Z,4.73
2018-12-08T22:33:21.010Z,5.00
2018-12-08T22:35:47.583Z,6.07
2018-12-08T22:38:14.033Z,5.13
2018-12-08T22:40:40.656Z,5.00
2018-12-08T22:43:07.999Z,7.00
2018-12-08T22:45:34.646Z,5.00
2018-12-08T22:48:01.348Z,6.47
2018-12-08T22:50:27.819Z,5.10
2018-12-08T22:52:54.412Z,6.87
2018-12-08T22:55:21.000Z,6.30
2018-12-08T22:57:47.553Z,6.60
2018-12-08T23:00:42.011Z,6.77
2018-12-08T23:03:09.036Z,7.20
2018-12-08T23:05:35.809Z,7.10
2018-12-08T23:08:02.574Z,8.33
2018-12-08T23:10:30.881Z,8.00
2018-12-08T23:12:59.449Z,7.27
2018-12-08T23:15:26.098Z,8.20
2018-12-08T23:17:52.630Z,9.00
2018-12-08T23:20:19.217Z,8.03
2018-12-08T23:22:47.393Z,9.00
2018-12-08T23:25:14.337Z,7.70
2018-12-08T23:27:40.897Z,8.90
2018-12-08T23:30:09.483Z,9.20
2018-12-08T23:32:36.146Z,9.87
2018-12-08T23:35:04.061Z,8.83
2018-12-08T23:37:30.901Z,10.00
2018-12-08T23:39:57.537Z,10.37
2018-12-08T23:42:24.712Z,9.40
2018-12-08T23:44:51.503Z,12.07
2018-12-08T23:47:19.061Z,10.60
2018-12-08T23:49:45.749Z,12.50
2018-12-08T23:52:12.440Z,10.70
2018-12-08T23:54:39.131Z,9.60
2018-12-08T23:57:06.872Z,10.30
2018-12-08T23:59:33.462Z,9.77
